Time;durP1;ratioP1;P1;durP2;ratioP2;P2;SDS_P1;SDS_P2;PMS_P1;PMS_P2;Temp;Humidity;BMP_temperature;BMP_pressure;BME280_temperature;BME280_humidity;BME280_pressure;Samples;Min_cycle;Max_cycle;Signal;HPM_P1;HPM_P2
2022/09/22 00:00:41;;;;;;;1.10;1.10;;;7.30;99.90;;;;;;5066513;28;20569;-48
2022/09/22 00:03:08;;;;;;;2.20;1.80;;;7.20;99.90;;;;;;5064984;28;20465;-48
2022/09/22 00:05:35;;;;;;;2.13;1.67;;;7.30;99.90;;;;;;5062201;28;21058;-48
2022/09/22 00:08:01;;;;;;;4.87;1.77;;;7.20;99.90;;;;;;5066976;28;21030;-49
2022/09/22 00:10:28;;;;;;;1.20;1.20;;;7.20;99.90;;;;;;5074684;28;20540;-48
2022/09/22 00:12:56;;;;;;;1.30;1.20;;;7.10;99.90;;;;;;5076561;28;20889;-47
2022/09/22 00:15:22;;;;;;;1.60;1.50;;;7.10;99.90;;;;;;5060515;28;20587;-47
2022/09/22 00:17:49;;;;;;;1.30;1.20;;;7.00;99.90;;;;;;5068492;28;20559;-48
2022/09/22 00:20:16;;;;;;;1.23;1.23;;;7.00;99.90;;;;;;5072291;28;20486;-48
2022/09/22 00:22:43;;;;;;;1.80;1.23;;;6.90;99.90;;;;;;5070545;28;20573;-48
2022/09/22 00:25:10;;;;;;;1.00;1.00;;;6.90;99.90;;;;;;5070239;28;20559;-48
2022/09/22 00:27:36;;;;;;;1.00;1.00;;;6.90;99.90;;;;;;5067867;28;20453;-47
2022/09/22 00:30:05;;;;;;;1.57;1.47;;;6.90;99.90;;;;;;5074364;28;21002;-47
2022/09/22 00:32:32;;;;;;;7.07;1.37;;;6.90;99.90;;;;;;5077749;28;20966;-47
2022/09/22 00:34:58;;;;;;;2.50;1.30;;;6.80;99.90;;;;;;5074585;28;20480;-47
2022/09/22 00:37:25;;;;;;;1.07;1.07;;;6.80;99.90;;;;;;5070268;28;20548;-47
2022/09/22 00:39:52;;;;;;;6.23;1.20;;;6.70;99.90;;;;;;5074061;28;21032;-47
2022/09/22 00:42:19;;;;;;;3.07;1.00;;;6.60;99.90;;;;;;5070151;28;20481;-46
2022/09/22 00:44:46;;;;;;;6.93;1.00;;;6.60;99.90;;;;;;5073535;28;20485;-46
2022/09/22 00:47:23;;;;;;;2.57;1.67;;;6.70;99.90;;;;;;5067712;28;20491;-48
2022/09/22 00:49:54;;;;;;;0.90;0.90;;;6.60;99.90;;;;;;5069454;28;20547;-47
2022/09/22 00:52:25;;;;;;;1.10;1.10;;;6.60;99.90;;;;;;5072159;28;20540;-48
2022/09/22 00:54:55;;;;;;;1.87;1.20;;;6.50;99.90;;;;;;5078624;28;20488;-48
2022/09/22 00:57:26;;;;;;;4.00;1.50;;;6.60;99.90;;;;;;5067117;28;20539;-48
2022/09/22 00:59:54;;;;;;;2.90;1.07;;;6.60;99.90;;;;;;5068889;28;20558;-46
2022/09/22 01:02:22;;;;;;;1.03;1.03;;;6.60;99.90;;;;;;5074043;28;20571;-47
2022/09/22 01:04:51;;;;;;;1.07;1.00;;;6.50;99.90;;;;;;5074935;28;20579;-47
2022/09/22 01:07:19;;;;;;;1.20;1.10;;;6.50;99.90;;;;;;5070510;28;20461;-48
2022/09/22 01:09:46;;;;;;;2.50;1.10;;;6.40;99.90;;;;;;5070333;28;20495;-48
2022/09/22 01:12:13;;;;;;;2.47;1.20;;;6.30;99.90;;;;;;5077293;28;20922;-47
2022/09/22 01:14:55;;;;;;;1.20;1.10;;;6.30;99.90;;;;;;5070176;28;20485;-50
2022/09/22 01:17:31;;;;;;;2.70;1.23;;;6.30;99.90;;;;;;5061011;28;20576;-51
2022/09/22 01:20:27;;;;;;;2.57;0.90;;;6.20;99.90;;;;;;5067603;28;20514;-50
2022/09/22 01:23:23;;;;;;;1.37;1.30;;;6.10;99.90;;;;;;5079354;28;20531;-50
2022/09/22 01:26:16;;;;;;;1.40;1.30;;;6.20;99.90;;;;;;5070925;28;20551;-50
2022/09/22 01:29:00;;;;;;;1.00;1.00;;;6.10;99.90;;;;;;5075403;28;20534;-51
2022/09/22 01:31:36;;;;;;;2.00;1.30;;;6.20;99.90;;;;;;5074599;28;20888;-50
2022/09/22 01:34:08;;;;;;;2.00;1.00;;;6.10;99.90;;;;;;5066013;28;20579;-51
2022/09/22 01:36:41;;;;;;;0.90;0.90;;;6.20;99.90;;;;;;5073715;28;20531;-51
2022/09/22 01:39:14;;;;;;;1.77;1.53;;;6.10;99.90;;;;;;5070326;28;20544;-51
2022/09/22 01:41:50;;;;;;;0.87;0.87;;;6.10;99.90;;;;;;5070816;28;20472;-50
2022/09/22 01:44:24;;;;;;;1.27;1.07;;;6.00;99.90;;;;;;5060387;28;20477;-51
2022/09/22 01:46:55;;;;;;;1.07;1.00;;;5.90;99.90;;;;;;5064463;28;20548;-51
2022/09/22 01:49:23;;;;;;;1.53;1.07;;;5.80;20.90;;;;;;5068606;28;20481;-51
2022/09/22 01:51:55;;;;;;;3.00;1.40;;;5.80;74.20;;;;;;5070235;28;20532;-51
2022/09/22 01:54:28;;;;;;;1.30;1.20;;;5.70;20.40;;;;;;5065463;28;20555;-50
2022/09/22 01:57:00;;;;;;;1.47;1.10;;;5.70;99.90;;;;;;5062078;28;20485;-50
2022/09/22 01:59:31;;;;;;;1.37;1.30;;;5.70;99.90;;;;;;5071705;28;20504;-50
2022/09/22 02:02:03;;;;;;;2.20;1.60;;;5.70;99.90;;;;;;5068803;28;20575;-51
2022/09/22 02:04:34;;;;;;;14.00;2.00;;;5.60;92.00;;;;;;5069109;28;20523;-51
2022/09/22 02:07:04;;;;;;;4.70;2.40;;;5.60;99.90;;;;;;5070661;28;20457;-51
2022/09/22 02:09:33;;;;;;;3.80;2.20;;;5.50;20.40;;;;;;5070644;28;21004;-51
2022/09/22 02:12:02;;;;;;;10.53;3.90;;;5.60;97.00;;;;;;5077417;28;20540;-51
2022/09/22 02:14:29;;;;;;;6.63;2.73;;;5.60;99.90;;;;;;5066606;28;20649;-50
2022/09/22 02:16:56;;;;;;;6.57;3.27;;;5.60;99.90;;;;;;5069754;28;20989;-50
2022/09/22 02:19:28;;;;;;;5.73;3.87;;;5.50;99.90;;;;;;5068818;28;20871;-50
2022/09/22 02:21:55;;;;;;;12.77;5.10;;;5.40;99.90;;;;;;5072665;28;20535;-51
2022/09/22 02:24:30;;;;;;;9.83;4.80;;;5.50;99.90;;;;;;5088137;28;20510;-50
2022/09/22 02:26:59;;;;;;;4.77;2.97;;;5.50;99.90;;;;;;5067887;28;20506;-51
2022/09/22 02:29:29;;;;;;;4.33;2.97;;;5.50;99.90;;;;;;5070544;28;20481;-50
2022/09/22 02:31:58;;;;;;;4.27;2.60;;;5.40;99.90;;;;;;5071237;28;20477;-51
2022/09/22 02:34:27;;;;;;;5.70;2.47;;;5.40;99.90;;;;;;5075449;28;21372;-50
2022/09/22 02:36:59;;;;;;;2.50;2.10;;;5.40;99.90;;;;;;5066438;28;20891;-50
2022/09/22 02:39:33;;;;;;;3.40;2.30;;;5.50;99.90;;;;;;5071042;28;20492;-50
2022/09/22 02:42:20;;;;;;;3.93;1.40;;;5.40;99.90;;;;;;5072408;28;20993;-51
2022/09/22 02:44:52;;;;;;;4.33;2.53;;;5.30;91.00;;;;;;5068632;28;20571;-51
2022/09/22 02:47:24;;;;;;;6.27;2.70;;;5.30;23.90;;;;;;5066416;28;20552;-51
2022/09/22 02:49:54;;;;;;;11.73;5.50;;;5.30;22.20;;;;;;5068629;28;21005;-51
2022/09/22 02:52:24;;;;;;;47.53;21.77;;;5.20;31.00;;;;;;5067970;28;20457;-50
2022/09/22 02:54:51;;;;;;;69.27;27.10;;;5.10;31.80;;;;;;5066040;28;20477;-51
2022/09/22 02:57:19;;;;;;;44.37;20.10;;;5.10;29.50;;;;;;5070831;28;20511;-50
2022/09/22 02:59:45;;;;;;;41.10;15.90;;;5.10;99.90;;;;;;5077086;28;20499;-50
2022/09/22 03:02:12;;;;;;;30.90;12.23;;;5.10;91.50;;;;;;5079606;28;20583;-51
2022/09/22 03:04:39;;;;;;;26.80;10.87;;;5.10;99.90;;;;;;5077258;28;20600;-51
2022/09/22 03:07:06;;;;;;;23.80;10.40;;;5.00;92.90;;;;;;5066859;28;20498;-50
2022/09/22 03:09:33;;;;;;;19.80;10.80;;;5.00;99.90;;;;;;5074668;28;20990;-50
2022/09/22 03:12:00;;;;;;;19.90;10.20;;;4.90;74.30;;;;;;5073335;28;20476;-51
2022/09/22 03:14:26;;;;;;;23.20;11.40;;;4.90;25.40;;;;;;5081299;28;20495;-51
2022/09/22 03:16:53;;;;;;;23.27;11.73;;;4.90;24.40;;;;;;5065895;28;20880;-51
2022/09/22 03:19:19;;;;;;;20.93;10.37;;;4.90;99.90;;;;;;5072956;28;20495;-51
2022/09/22 03:21:46;;;;;;;21.70;10.60;;;4.90;99.90;;;;;;5077125;28;21077;-51
2022/09/22 03:24:14;;;;;;;28.07;11.10;;;4.80;25.20;;;;;;5073201;28;20642;-51
2022/09/22 03:26:40;;;;;;;19.83;10.70;;;4.90;99.90;;;;;;5064524;28;20557;-50
2022/09/22 03:29:07;;;;;;;23.50;11.80;;;4.90;99.90;;;;;;5071399;28;20496;-51
2022/09/22 03:31:33;;;;;;;21.03;9.90;;;5.00;99.90;;;;;;5071059;28;20859;-51
2022/09/22 03:34:00;;;;;;;27.30;12.77;;;4.90;89.00;;;;;;5068513;28;20512;-50
2022/09/22 03:36:27;;;;;;;45.40;21.87;;;4.90;99.90;;;;;;5065555;28;20484;-50
2022/09/22 03:38:53;;;;;;;44.73;20.73;;;4.80;22.70;;;;;;5074599;28;20527;-51
2022/09/22 03:41:21;;;;;;;22.23;12.43;;;4.80;97.20;;;;;;5074091;28;20570;-50
2022/09/22 03:43:48;;;;;;;18.73;10.60;;;4.70;99.90;;;;;;5074423;28;20517;-50
2022/09/22 03:46:15;;;;;;;21.90;12.07;;;4.70;99.90;;;;;;5067831;28;20548;-51
2022/09/22 03:48:41;;;;;;;26.80;12.30;;;4.70;99.90;;;;;;5068538;28;20522;-50
2022/09/22 03:51:08;;;;;;;34.23;19.40;;;4.70;99.90;;;;;;5070490;28;20901;-51
2022/09/22 03:53:35;;;;;;;40.90;21.80;;;4.60;77.30;;;;;;5074691;28;20555;-51
2022/09/22 03:56:05;;;;;;;40.43;18.57;;;4.60;21.30;;;;;;5068835;28;20508;-51
2022/09/22 03:58:35;;;;;;;39.03;19.67;;;4.60;99.90;;;;;;5067398;28;20489;-51
2022/09/22 04:01:01;;;;;;;30.53;16.93;;;4.50;22.70;;;;;;5066585;28;20468;-51
2022/09/22 04:03:28;;;;;;;29.43;13.63;;;4.50;99.90;;;;;;5069409;28;21057;-51
2022/09/22 04:05:55;;;;;;;15.73;9.60;;;4.60;99.90;;;;;;5072408;28;20567;-50
2022/09/22 04:08:21;;;;;;;20.83;8.83;;;4.50;99.90;;;;;;5069518;28;21004;-51
2022/09/22 04:10:48;;;;;;;24.27;11.60;;;4.50;99.90;;;;;;5063475;28;20581;-51
2022/09/22 04:13:15;;;;;;;17.47;10.27;;;4.60;99.90;;;;;;5072239;28;20488;-51
2022/09/22 04:15:43;;;;;;;18.97;9.27;;;4.50;99.90;;;;;;5071851;28;20520;-51
2022/09/22 04:18:11;;;;;;;22.83;9.30;;;4.50;20.90;;;;;;5069174;28;20979;-51
2022/09/22 04:20:39;;;;;;;17.23;10.30;;;4.50;22.80;;;;;;5070331;28;20965;-50
2022/09/22 04:23:06;;;;;;;14.50;9.93;;;4.50;27.10;;;;;;5080583;28;20512;-51
2022/09/22 04:25:32;;;;;;;14.80;8.33;;;4.40;33.20;;;;;;5067411;28;20480;-51
2022/09/22 04:27:59;;;;;;;10.00;6.80;;;4.30;31.50;;;;;;5067888;28;20468;-51
2022/09/22 04:30:25;;;;;;;8.90;6.47;;;4.30;31.30;;;;;;5065326;28;20492;-51
2022/09/22 04:32:53;;;;;;;6.03;4.80;;;4.30;31.10;;;;;;5069711;28;20985;-50
2022/09/22 04:35:20;;;;;;;3.47;3.20;;;4.30;32.90;;;;;;5070340;28;22922;-51
2022/09/22 04:37:46;;;;;;;3.67;3.33;;;4.30;24.70;;;;;;5066694;28;20992;-50
2022/09/22 04:40:13;;;;;;;3.23;2.93;;;4.20;84.00;;;;;;5064657;28;20585;-50
2022/09/22 04:42:40;;;;;;;5.33;3.23;;;4.30;99.90;;;;;;5073769;28;20505;-50
2022/09/22 04:45:07;;;;;;;2.70;2.20;;;4.30;99.90;;;;;;5068844;28;20953;-51
2022/09/22 04:47:34;;;;;;;6.27;2.50;;;4.30;99.90;;;;;;5065526;28;20453;-51
2022/09/22 04:50:02;;;;;;;2.63;2.43;;;4.30;93.80;;;;;;5063124;28;20528;-51
2022/09/22 04:52:29;;;;;;;4.90;3.53;;;4.30;20.90;;;;;;5065736;28;20970;-51
2022/09/22 04:54:55;;;;;;;3.77;3.10;;;4.30;27.60;;;;;;5066325;28;20567;-51
2022/09/22 04:57:22;;;;;;;3.20;2.90;;;4.20;31.20;;;;;;5064712;28;20548;-51
2022/09/22 04:59:48;;;;;;;8.20;2.63;;;4.20;31.10;;;;;;5066351;28;20497;-50
2022/09/22 05:02:15;;;;;;;3.23;2.90;;;4.10;28.70;;;;;;5065249;28;20559;-51
2022/09/22 05:04:41;;;;;;;5.80;3.10;;;4.10;23.80;;;;;;5073205;28;20507;-51
2022/09/22 05:07:09;;;;;;;14.73;13.17;;;4.20;99.90;;;;;;5064946;28;20975;-50
2022/09/22 05:09:36;;;;;;;20.67;15.00;;;4.20;21.10;;;;;;5063693;28;20465;-51
2022/09/22 05:12:02;;;;;;;23.60;17.80;;;4.20;99.90;;;;;;5057593;28;20518;-51
2022/09/22 05:14:30;;;;;;;15.90;12.20;;;4.20;99.90;;;;;;5065412;28;20536;-51
2022/09/22 05:16:57;;;;;;;8.67;7.77;;;4.20;99.90;;;;;;5070345;28;20467;-50
2022/09/22 05:19:23;;;;;;;7.10;6.50;;;4.20;99.90;;;;;;5066847;28;20556;-50
2022/09/22 05:21:50;;;;;;;6.83;6.23;;;4.20;99.90;;;;;;5063935;28;22440;-50
2022/09/22 05:24:18;;;;;;;5.47;5.00;;;4.30;99.90;;;;;;5068124;28;20504;-51
2022/09/22 05:26:45;;;;;;;5.37;4.10;;;4.30;99.90;;;;;;5072555;28;20483;-51
2022/09/22 05:29:12;;;;;;;8.13;4.27;;;4.30;99.90;;;;;;5071904;28;20911;-50
2022/09/22 05:31:38;;;;;;;7.37;4.17;;;4.30;92.60;;;;;;5066711;28;20456;-50
2022/09/22 05:34:05;;;;;;;4.57;4.17;;;4.30;98.80;;;;;;5067570;28;20600;-50
2022/09/22 05:36:31;;;;;;;4.00;3.67;;;4.30;99.90;;;;;;5073177;28;20547;-51
2022/09/22 05:38:58;;;;;;;6.60;3.70;;;4.30;99.80;;;;;;5071525;28;20488;-50
2022/09/22 05:41:26;;;;;;;5.23;3.20;;;4.40;87.20;;;;;;5060948;28;21047;-50
2022/09/22 05:43:53;;;;;;;6.43;3.30;;;4.50;99.90;;;;;;5064394;28;20565;-51
2022/09/22 05:46:19;;;;;;;3.40;3.20;;;4.60;23.70;;;;;;5069984;28;20560;-51
2022/09/22 05:48:46;;;;;;;4.23;3.83;;;4.70;24.00;;;;;;5065192;28;20555;-50
2022/09/22 05:51:12;;;;;;;5.37;4.00;;;4.70;28.10;;;;;;5063930;28;20892;-49
2022/09/22 05:53:39;;;;;;;6.33;4.00;;;4.80;36.30;;;;;;5065010;28;20565;-50
2022/09/22 05:56:05;;;;;;;8.67;6.80;;;4.80;40.50;;;;;;5066007;28;20508;-51
2022/09/22 05:58:33;;;;;;;9.37;6.50;;;4.80;34.40;;;;;;5064421;28;20495;-49
2022/09/22 06:01:00;;;;;;;10.67;5.60;;;4.90;25.30;;;;;;5066367;28;20492;-49
2022/09/22 06:03:26;;;;;;;8.03;5.67;;;4.90;20.10;;;;;;5060263;28;20655;-50
2022/09/22 06:05:53;;;;;;;6.20;5.13;;;5.00;72.10;;;;;;5060846;28;20609;-50
2022/09/22 06:08:19;;;;;;;5.20;4.50;;;5.10;84.30;;;;;;5064830;28;20461;-50
2022/09/22 06:10:47;;;;;;;7.43;3.63;;;5.20;95.60;;;;;;5069285;28;20560;-49
2022/09/22 06:13:14;;;;;;;5.70;3.83;;;5.20;99.90;;;;;;5069180;28;20530;-50
2022/09/22 06:15:45;;;;;;;7.90;3.30;;;5.30;99.90;;;;;;5068817;28;20516;-50
2022/09/22 06:18:12;;;;;;;3.80;2.97;;;5.40;99.90;;;;;;5069225;28;20480;-50
2022/09/22 06:20:39;;;;;;;3.17;2.60;;;5.50;99.90;;;;;;5069687;28;20477;-50
2022/09/22 06:23:07;;;;;;;5.83;2.93;;;5.70;99.90;;;;;;5068852;28;21037;-51
2022/09/22 06:25:34;;;;;;;2.57;2.37;;;5.80;99.90;;;;;;5069805;28;20522;-50
2022/09/22 06:28:03;;;;;;;2.80;2.70;;;5.90;99.90;;;;;;5066866;28;20523;-50
2022/09/22 06:30:30;;;;;;;3.43;2.63;;;6.00;99.90;;;;;;5063425;28;20959;-49
2022/09/22 06:32:58;;;;;;;2.77;2.53;;;6.10;99.90;;;;;;5069015;28;20460;-49
2022/09/22 06:35:27;;;;;;;2.60;2.40;;;6.10;99.90;;;;;;5060637;28;20580;-50
2022/09/22 06:37:56;;;;;;;3.30;3.10;;;6.20;99.90;;;;;;5066207;28;20465;-49
2022/09/22 06:40:23;;;;;;;2.77;2.67;;;6.30;99.90;;;;;;5067563;28;20464;-50
2022/09/22 06:42:50;;;;;;;2.10;2.00;;;6.40;99.90;;;;;;5069928;28;20504;-50
2022/09/22 06:45:17;;;;;;;8.97;2.20;;;6.50;99.90;;;;;;5064479;28;20505;-48
2022/09/22 06:47:44;;;;;;;2.67;1.70;;;6.60;99.90;;;;;;5062008;28;20464;-49
2022/09/22 06:50:12;;;;;;;2.37;1.87;;;6.70;99.90;;;;;;5065302;28;20842;-50
2022/09/22 06:52:38;;;;;;;1.83;1.70;;;6.80;99.90;;;;;;5067662;28;20464;-50
2022/09/22 06:55:06;;;;;;;2.03;1.80;;;6.90;99.90;;;;;;5068608;28;20572;-51
2022/09/22 06:57:32;;;;;;;6.33;2.10;;;7.00;99.90;;;;;;5063761;28;20515;-50
2022/09/22 07:00:00;;;;;;;8.97;6.10;;;7.10;99.90;;;;;;5064532;28;20461;-50
2022/09/22 07:02:28;;;;;;;4.37;4.07;;;7.20;99.90;;;;;;5063736;28;20484;-50
2022/09/22 07:04:57;;;;;;;3.00;2.90;;;7.30;99.90;;;;;;5065598;28;20994;-50
2022/09/22 07:07:27;;;;;;;3.83;2.70;;;7.40;99.90;;;;;;5061175;28;20477;-49
2022/09/22 07:09:53;;;;;;;2.33;2.13;;;7.50;99.90;;;;;;5066307;28;20453;-50
2022/09/22 07:12:21;;;;;;;3.73;3.37;;;7.80;99.90;;;;;;5068642;28;20484;-49
2022/09/22 07:14:49;;;;;;;3.90;3.60;;;7.90;99.90;;;;;;5069684;22;20625;-50
2022/09/22 07:17:16;;;;;;;3.27;1.70;;;8.10;99.90;;;;;;5023031;28;20498;-51
2022/09/22 07:19:45;;;;;;;2.40;1.87;;;8.30;99.90;;;;;;5026557;28;20545;-50
2022/09/22 07:22:13;;;;;;;1.60;1.50;;;8.40;99.90;;;;;;5028879;28;20528;-51
2022/09/22 07:24:41;;;;;;;6.83;1.70;;;8.50;99.90;;;;;;5029240;28;20483;-51
2022/09/22 07:27:09;;;;;;;2.30;1.47;;;8.60;99.90;;;;;;5024394;28;20463;-51
2022/09/22 07:29:36;;;;;;;1.40;1.30;;;8.80;99.90;;;;;;5027463;28;20486;-51
2022/09/22 07:32:02;;;;;;;2.23;1.43;;;9.00;99.90;;;;;;5023940;28;20474;-52
2022/09/22 07:34:29;;;;;;;1.40;1.40;;;9.20;99.90;;;;;;5023608;28;21008;-51
2022/09/22 07:36:56;;;;;;;1.30;1.20;;;9.30;99.90;;;;;;5024418;28;20495;-51
2022/09/22 07:39:24;;;;;;;4.07;1.60;;;9.30;99.90;;;;;;5029463;28;20512;-51
2022/09/22 07:41:51;;;;;;;1.90;1.20;;;9.40;99.90;;;;;;5030712;28;20459;-51
2022/09/22 07:47:03;;;;;;;1.17;1.17;;;9.60;99.90;;;;;;5031567;28;20446;-51
2022/09/22 07:49:30;;;;;;;1.10;1.10;;;9.70;99.90;;;;;;5029168;28;20494;-53
2022/09/22 07:51:57;;;;;;;1.00;1.00;;;9.80;99.90;;;;;;5024149;28;20506;-51
2022/09/22 07:54:25;;;;;;;1.10;1.10;;;9.90;99.90;;;;;;5029570;28;20482;-50
2022/09/22 07:56:57;;;;;;;0.90;0.90;;;10.10;99.90;;;;;;5020628;28;20458;-50
2022/09/22 07:59:24;;;;;;;0.90;0.90;;;10.20;99.90;;;;;;5025935;28;20477;-50
2022/09/22 08:01:52;;;;;;;1.27;1.17;;;10.30;99.90;;;;;;5023729;28;21027;-50
2022/09/22 08:04:21;;;;;;;1.00;1.00;;;10.40;91.50;;;;;;5025592;28;20482;-51
2022/09/22 08:06:50;;;;;;;1.20;1.10;;;10.50;73.00;;;;;;5027250;28;20964;-51
2022/09/22 08:09:18;;;;;;;1.10;1.10;;;10.60;22.80;;;;;;5029200;28;20524;-51
2022/09/22 08:11:47;;;;;;;1.23;1.03;;;10.70;28.40;;;;;;5027979;28;20486;-51
2022/09/22 08:14:17;;;;;;;8.03;0.90;;;10.80;33.00;;;;;;5022109;28;20463;-50
2022/09/22 08:16:45;;;;;;;1.33;0.97;;;11.00;38.00;;;;;;5025571;28;20504;-51
2022/09/22 08:19:13;;;;;;;1.10;1.10;;;11.10;45.80;;;;;;5024727;28;20470;-50
2022/09/22 08:21:41;;;;;;;1.43;0.90;;;11.20;50.80;;;;;;5026767;28;20467;-52
2022/09/22 08:24:09;;;;;;;1.67;1.07;;;11.30;54.40;;;;;;5024274;28;20478;-50
2022/09/22 08:26:37;;;;;;;2.30;0.93;;;11.50;58.40;;;;;;5026760;28;20459;-50
2022/09/22 08:29:05;;;;;;;1.07;1.07;;;11.60;73.00;;;;;;5022734;28;20887;-50
2022/09/22 08:31:35;;;;;;;0.63;0.63;;;11.70;86.70;;;;;;5023880;28;20551;-51
2022/09/22 08:34:04;;;;;;;0.70;0.70;;;11.90;93.50;;;;;;5023383;28;20964;-51
2022/09/22 08:36:31;;;;;;;3.53;1.03;;;12.00;99.90;;;;;;5023799;28;20493;-51
2022/09/22 08:38:59;;;;;;;0.93;0.83;;;12.10;99.90;;;;;;5026088;28;20506;-50
2022/09/22 08:41:37;;;;;;;2.40;2.00;;;12.20;99.90;;;;;;5025425;28;20513;-51
2022/09/22 08:44:16;;;;;;;1.43;1.17;;;12.40;99.90;;;;;;5026630;28;20482;-50
2022/09/22 08:46:45;;;;;;;1.40;1.00;;;12.50;99.90;;;;;;5026282;28;20505;-51
2022/09/22 08:52:14;;;;;;;1.47;1.00;;;12.80;99.90;;;;;;5028273;28;20580;-51
2022/09/22 08:54:43;;;;;;;10.33;1.00;;;13.00;99.90;;;;;;5018676;28;20823;-50
2022/09/22 08:57:22;;;;;;;5.10;0.93;;;13.20;99.90;;;;;;5025745;28;20459;-51
2022/09/22 08:59:53;;;;;;;1.20;1.10;;;13.20;99.90;;;;;;5027390;28;20550;-51
2022/09/22 09:02:38;;;;;;;1.10;0.80;;;13.40;99.90;;;;;;5027390;28;20490;-50
2022/09/22 09:05:42;;;;;;;1.57;1.47;;;13.60;99.90;;;;;;5026360;28;20564;-50
2022/09/22 09:08:28;;;;;;;0.80;0.60;;;13.60;42.90;;;;;;5027583;28;20461;-51
2022/09/22 09:10:56;;;;;;;1.20;0.73;;;13.80;72.80;;;;;;5028074;28;20546;-51
2022/09/22 09:13:40;;;;;;;2.63;2.43;;;14.00;59.40;;;;;;5029730;28;20489;-51
2022/09/22 09:16:17;;;;;;;1.20;1.10;;;14.10;76.70;;;;;;5025347;28;20498;-51
2022/09/22 09:18:47;;;;;;;0.73;0.73;;;14.20;59.70;;;;;;5013236;28;21027;-51
2022/09/22 09:21:15;;;;;;;1.20;1.10;;;14.30;74.30;;;;;;5026861;28;20545;-51
2022/09/22 09:23:46;;;;;;;5.70;0.90;;;14.30;65.90;;;;;;5027834;28;20482;-52
2022/09/22 09:26:14;;;;;;;1.60;0.70;;;14.40;74.40;;;;;;5032964;28;20482;-52
2022/09/22 09:28:44;;;;;;;0.90;0.60;;;14.30;80.20;;;;;;5027583;28;20498;-51
2022/09/22 09:31:16;;;;;;;1.33;0.90;;;14.20;77.40;;;;;;5028828;28;20914;-52
2022/09/22 09:33:55;;;;;;;4.00;0.97;;;14.20;75.70;;;;;;5025414;28;20455;-52
2022/09/22 09:36:23;;;;;;;0.80;0.80;;;14.30;74.90;;;;;;5028053;28;20566;-51
2022/09/22 09:38:54;;;;;;;1.33;1.00;;;14.40;71.80;;;;;;5030029;28;20533;-51
2022/09/22 09:41:23;;;;;;;0.80;0.70;;;14.60;79.60;;;;;;5022605;28;20458;-50
2022/09/22 09:43:53;;;;;;;1.73;0.90;;;14.70;80.90;;;;;;5026520;28;20553;-52
2022/09/22 09:46:33;;;;;;;0.83;0.83;;;14.60;84.80;;;;;;5028025;28;20590;-51
2022/09/22 09:49:06;;;;;;;7.10;1.10;;;14.50;82.30;;;;;;5027656;28;20455;-51
2022/09/22 09:51:34;;;;;;;5.17;1.27;;;14.40;78.50;;;;;;5027461;28;20502;-51
2022/09/22 09:54:04;;;;;;;1.83;1.20;;;14.30;81.00;;;;;;5026008;28;20521;-51
2022/09/22 09:56:32;;;;;;;2.00;1.80;;;14.30;81.20;;;;;;5029764;28;20467;-51
2022/09/22 10:01:46;;;;;;;0.80;0.80;;;14.40;83.30;;;;;;5027781;28;20501;-51
2022/09/22 10:04:29;;;;;;;3.13;0.90;;;14.40;87.90;;;;;;5023977;28;20524;-51
2022/09/22 10:07:09;;;;;;;2.93;0.60;;;14.50;78.90;;;;;;5023763;28;20546;-50
2022/09/22 10:09:35;;;;;;;0.70;0.70;;;14.50;76.80;;;;;;5025623;28;20478;-51
2022/09/22 10:12:03;;;;;;;0.60;0.60;;;14.30;81.40;;;;;;5026478;28;20463;-51
2022/09/22 10:14:32;;;;;;;1.07;0.63;;;14.20;77.10;;;;;;5022695;28;20516;-51
2022/09/22 10:16:59;;;;;;;0.80;0.80;;;14.00;76.70;;;;;;5028265;28;20550;-51
2022/09/22 10:19:29;;;;;;;1.30;0.70;;;13.80;78.90;;;;;;5027857;28;20469;-51
2022/09/22 10:22:26;;;;;;;0.90;0.50;;;13.70;82.60;;;;;;5025757;28;20462;-51
2022/09/22 10:24:55;;;;;;;2.17;0.80;;;13.60;74.90;;;;;;5026247;28;20478;-50
2022/09/22 10:27:24;;;;;;;0.70;0.60;;;13.70;73.00;;;;;;5028145;28;20881;-51
2022/09/22 10:30:22;;;;;;;0.60;0.60;;;13.60;69.00;;;;;;5028835;28;20462;-50
2022/09/22 10:33:14;;;;;;;1.27;0.77;;;13.60;69.70;;;;;;5028176;28;20868;-51
2022/09/22 10:35:44;;;;;;;1.70;1.17;;;13.70;67.40;;;;;;5009358;28;20491;-51
2022/09/22 10:38:20;;;;;;;1.00;0.80;;;13.80;74.40;;;;;;5029903;28;20968;-48
2022/09/22 10:40:54;;;;;;;1.03;0.70;;;14.10;74.90;;;;;;5026564;28;20489;-48
2022/09/22 10:43:34;;;;;;;0.80;0.80;;;14.20;77.80;;;;;;5020877;28;20494;-48
2022/09/22 10:46:41;;;;;;;1.57;0.67;;;14.40;79.90;;;;;;5022209;28;21018;-47
2022/09/22 10:49:12;;;;;;;2.20;0.70;;;14.60;83.10;;;;;;4965141;28;20493;-47
2022/09/22 10:51:55;;;;;;;1.03;0.70;;;14.70;99.90;;;;;;4967417;28;21001;-48
2022/09/22 10:55:05;;;;;;;0.90;0.90;;;14.90;99.90;;;;;;4997820;28;20964;-47
2022/09/22 10:57:57;;;;;;;0.93;0.57;;;15.00;99.90;;;;;;4981250;28;20532;-48
2022/09/22 11:00:25;;;;;;;0.70;0.63;;;15.20;99.90;;;;;;5028602;28;20470;-48
2022/09/22 11:03:23;;;;;;;1.80;0.60;;;15.20;99.90;;;;;;5024973;28;20487;-48
2022/09/22 11:14:55;;;;;;;3.33;0.50;;;15.40;99.90;;;;;;5022770;28;20597;-47
2022/09/22 11:17:39;;;;;;;0.80;0.70;;;15.50;99.90;;;;;;5027364;28;20981;-48
2022/09/22 11:20:30;;;;;;;0.83;0.83;;;15.40;99.90;;;;;;5025413;28;20455;-48
2022/09/22 11:23:12;;;;;;;0.83;0.50;;;15.40;99.90;;;;;;5022802;28;20467;-48
2022/09/22 11:25:54;;;;;;;0.73;0.73;;;15.40;99.90;;;;;;5024423;28;20520;-48
2022/09/22 11:28:33;;;;;;;0.90;0.60;;;15.40;99.90;;;;;;5021548;28;20542;-48
2022/09/22 11:31:00;;;;;;;1.03;0.70;;;15.50;99.90;;;;;;5030892;28;20486;-47
2022/09/22 11:34:06;;;;;;;0.80;0.70;;;15.50;99.90;;;;;;5025026;28;20929;-48
2022/09/22 11:36:42;;;;;;;0.93;0.80;;;15.60;99.90;;;;;;5026275;28;20550;-47
2022/09/22 11:39:32;;;;;;;0.60;0.50;;;15.60;99.90;;;;;;5020688;28;20896;-47
2022/09/22 11:42:15;;;;;;;1.27;0.60;;;15.60;99.90;;;;;;5025344;28;20491;-47
2022/09/22 11:44:50;;;;;;;1.30;0.60;;;15.70;99.90;;;;;;5026132;28;20529;-47
2022/09/22 11:47:46;;;;;;;0.70;0.70;;;15.80;99.90;;;;;;5021189;28;20486;-47
2022/09/22 11:50:29;;;;;;;0.70;0.70;;;15.90;99.90;;;;;;5024017;28;20992;-48
2022/09/22 11:53:37;;;;;;;0.73;0.57;;;15.90;99.90;;;;;;5029596;28;20455;-47
2022/09/22 11:56:22;;;;;;;2.20;0.67;;;15.80;99.90;;;;;;5014783;28;20560;-48
2022/09/22 11:58:54;;;;;;;3.33;1.00;;;15.90;99.90;;;;;;5031303;28;20498;-47
2022/09/22 12:01:28;;;;;;;0.60;0.60;;;15.90;99.90;;;;;;5027847;28;20471;-48
2022/09/22 12:04:00;;;;;;;0.77;0.60;;;15.90;99.90;;;;;;5027571;28;20518;-47
2022/09/22 12:06:31;;;;;;;1.03;0.50;;;15.90;99.90;;;;;;5022375;28;20877;-47
2022/09/22 12:09:02;;;;;;;0.70;0.60;;;15.90;99.90;;;;;;5024801;28;20499;-48
2022/09/22 12:11:34;;;;;;;0.87;0.67;;;15.70;99.90;;;;;;5027473;28;20503;-47
2022/09/22 12:14:04;;;;;;;0.70;0.60;;;15.60;99.90;;;;;;5027457;28;20466;-47
2022/09/22 12:16:40;;;;;;;1.03;0.63;;;15.40;99.90;;;;;;5028823;28;20553;-47
2022/09/22 12:19:15;;;;;;;0.80;0.70;;;15.30;99.90;;;;;;5028028;28;21044;-48
2022/09/22 12:21:49;;;;;;;0.60;0.60;;;15.30;99.90;;;;;;5021150;28;20465;-47
2022/09/22 12:24:16;;;;;;;0.67;0.67;;;15.40;99.90;;;;;;5026617;28;20551;-47
2022/09/22 12:26:45;;;;;;;1.13;0.70;;;15.40;99.90;;;;;;5026373;28;20968;-48
2022/09/22 12:29:24;;;;;;;0.60;0.50;;;15.40;99.90;;;;;;5028147;28;20509;-47
2022/09/22 12:31:54;;;;;;;0.60;0.57;;;15.40;99.90;;;;;;5027941;28;20546;-48
2022/09/22 12:34:24;;;;;;;0.83;0.67;;;15.50;99.90;;;;;;5031343;28;20482;-47
2022/09/22 12:36:53;;;;;;;0.70;0.40;;;15.70;99.90;;;;;;5031749;28;20675;-47
2022/09/22 12:39:23;;;;;;;1.83;0.70;;;15.80;99.90;;;;;;5030471;28;20983;-51
2022/09/22 12:41:55;;;;;;;0.90;0.60;;;16.00;99.90;;;;;;5033273;28;20482;-50
2022/09/22 12:44:25;;;;;;;0.60;0.50;;;16.10;99.90;;;;;;5032191;28;20478;-51
2022/09/22 12:46:57;;;;;;;0.60;0.50;;;16.20;99.90;;;;;;5031943;28;20497;-50
2022/09/22 12:49:24;;;;;;;1.03;0.97;;;16.20;99.90;;;;;;5030483;28;20513;-51
2022/09/22 12:51:51;;;;;;;0.50;0.50;;;16.40;99.90;;;;;;5026139;28;20454;-51
2022/09/22 12:54:42;;;;;;;0.60;0.60;;;16.40;99.90;;;;;;5031564;28;20454;-51
2022/09/22 12:57:29;;;;;;;1.17;0.50;;;16.50;99.90;;;;;;5027662;28;20555;-51
2022/09/22 13:00:12;;;;;;;0.80;0.50;;;16.50;99.90;;;;;;5024109;28;20533;-51
2022/09/22 13:02:44;;;;;;;0.60;0.53;;;16.50;99.90;;;;;;5031569;28;20550;-51
2022/09/22 13:05:41;;;;;;;2.97;0.60;;;16.70;99.90;;;;;;5027596;28;20544;-51
2022/09/22 13:08:18;;;;;;;0.60;0.53;;;16.70;99.90;;;;;;5033474;28;20463;-52
2022/09/22 13:10:59;;;;;;;3.27;0.80;;;16.90;1.40;;;;;;5027030;28;20483;-52
2022/09/22 13:13:42;;;;;;;0.60;0.50;;;17.00;99.90;;;;;;5025708;28;20546;-51
2022/09/22 13:16:37;;;;;;;1.00;0.60;;;17.00;99.90;;;;;;5035885;28;21002;-51
2022/09/22 13:19:13;;;;;;;0.50;0.40;;;17.00;99.90;;;;;;4996630;28;21020;-51
2022/09/22 13:21:40;;;;;;;4.70;0.53;;;17.20;99.90;;;;;;5029946;28;20832;-51
2022/09/22 13:24:21;;;;;;;1.17;0.50;;;17.10;99.90;;;;;;5022409;28;21055;-50
2022/09/22 13:26:47;;;;;;;1.33;0.40;;;17.10;99.90;;;;;;5017102;28;20555;-50
2022/09/22 13:29:16;;;;;;;0.83;0.60;;;17.20;99.90;;;;;;5030628;28;20545;-50